createdAt,value
2022-08-27T00:02:20.077Z,9.00
2022-08-27T00:04:46.665Z,9.30
2022-08-27T00:07:13.777Z,8.50
2022-08-27T00:09:40.837Z,9.13
2022-08-27T00:12:08.369Z,8.25
2022-08-27T00:14:38.690Z,8.10
2022-08-27T00:17:07.003Z,9.30
2022-08-27T00:19:36.007Z,8.48
2022-08-27T00:22:05.191Z,8.98
2022-08-27T00:24:31.770Z,8.90
2022-08-27T00:26:58.304Z,9.30
2022-08-27T00:29:25.744Z,9.48
2022-08-27T00:31:53.911Z,9.43
2022-08-27T00:34:22.402Z,9.48
2022-08-27T00:36:49.138Z,9.23
2022-08-27T00:39:15.838Z,9.43
2022-08-27T00:41:45.029Z,9.05
2022-08-27T00:44:12.809Z,8.65
2022-08-27T00:46:50.174Z,9.90
2022-08-27T00:49:48.603Z,9.32
2022-08-27T00:52:52.348Z,8.02
2022-08-27T00:55:26.712Z,7.65
2022-08-27T00:58:48.572Z,8.80
2022-08-27T01:01:23.751Z,9.60
2022-08-27T01:03:55.111Z,9.27
2022-08-27T01:06:27.844Z,9.43
2022-08-27T01:09:07.195Z,9.13
2022-08-27T01:11:34.098Z,8.07
2022-08-27T01:14:03.310Z,8.80
2022-08-27T01:16:39.350Z,8.43
2022-08-27T01:19:18.201Z,8.65
2022-08-27T01:22:24.339Z,8.63
2022-08-27T01:24:55.133Z,8.23
2022-08-27T01:27:27.045Z,7.60
2022-08-27T01:29:54.430Z,7.53
2022-08-27T01:32:28.885Z,8.70
2022-08-27T01:34:56.975Z,9.63
2022-08-27T01:37:25.402Z,9.15
2022-08-27T01:39:56.804Z,10.43
2022-08-27T01:42:34.731Z,8.48
2022-08-27T01:45:15.281Z,8.05
2022-08-27T01:47:41.943Z,8.82
2022-08-27T01:50:42.975Z,7.90
2022-08-27T01:53:21.612Z,7.95
2022-08-27T01:55:51.013Z,8.25
2022-08-27T01:58:22.532Z,8.65
2022-08-27T02:00:56.407Z,9.35
2022-08-27T02:03:24.265Z,9.38
2022-08-27T02:05:51.430Z,9.00
2022-08-27T02:08:18.876Z,9.05
2022-08-27T02:10:47.931Z,7.87
2022-08-27T02:13:16.009Z,7.10
2022-08-27T02:15:44.860Z,7.47
2022-08-27T02:18:13.152Z,7.32
2022-08-27T02:20:40.334Z,8.07
2022-08-27T02:23:08.155Z,8.25
2022-08-27T02:25:35.206Z,7.43
2022-08-27T02:28:03.134Z,7.68
2022-08-27T02:30:32.824Z,8.20
2022-08-27T02:33:01.859Z,8.05
2022-08-27T02:35:30.050Z,7.35
2022-08-27T02:37:57.568Z,8.20
2022-08-27T02:40:25.628Z,7.43
2022-08-27T02:42:52.482Z,8.40
2022-08-27T02:45:20.098Z,9.13
2022-08-27T02:47:47.813Z,8.90
2022-08-27T02:50:15.592Z,8.68
2022-08-27T02:52:44.560Z,8.35
2022-08-27T02:55:14.150Z,8.82
2022-08-27T02:57:40.760Z,8.13
2022-08-27T03:00:12.651Z,8.80
2022-08-27T03:02:39.304Z,8.65
2022-08-27T03:05:08.252Z,9.05
2022-08-27T03:07:36.525Z,8.95
2022-08-27T03:10:05.357Z,8.80
2022-08-27T03:12:33.552Z,8.85
2022-08-27T03:15:00.101Z,10.05
2022-08-27T03:17:44.810Z,10.20
2022-08-27T03:20:11.624Z,11.70
2022-08-27T03:22:39.530Z,8.68
2022-08-27T03:25:07.372Z,8.27
2022-08-27T03:27:33.899Z,8.80
2022-08-27T03:30:07.810Z,8.70
2022-08-27T03:32:35.689Z,9.00
2022-08-27T03:35:02.652Z,8.13
2022-08-27T03:37:29.189Z,7.93
2022-08-27T03:39:55.771Z,7.22
2022-08-27T03:42:23.368Z,7.05
2022-08-27T03:44:49.899Z,7.65
2022-08-27T03:47:16.430Z,8.07
2022-08-27T03:49:42.966Z,8.18
2022-08-27T03:52:09.874Z,8.57
2022-08-27T03:54:39.876Z,8.02
2022-08-27T03:57:07.401Z,7.97
2022-08-27T03:59:34.060Z,8.50
2022-08-27T04:02:01.780Z,8.30
2022-08-27T04:04:29.203Z,8.93
2022-08-27T04:06:58.939Z,8.80
2022-08-27T04:09:26.229Z,8.63
2022-08-27T04:11:53.184Z,8.82
2022-08-27T04:14:26.453Z,8.05
2022-08-27T04:16:56.247Z,8.30
2022-08-27T04:19:27.683Z,8.30
2022-08-27T04:22:03.734Z,7.65
2022-08-27T04:24:32.926Z,8.10
2022-08-27T04:27:00.947Z,7.10
2022-08-27T04:29:28.212Z,8.05
2022-08-27T04:31:56.142Z,8.43
2022-08-27T04:34:23.038Z,8.80
2022-08-27T04:36:50.614Z,10.05
2022-08-27T04:39:17.322Z,8.60
2022-08-27T04:41:43.866Z,7.15
2022-08-27T04:44:11.502Z,8.00
2022-08-27T04:46:40.085Z,7.65
2022-08-27T04:49:11.701Z,7.60
2022-08-27T04:51:40.142Z,7.43
2022-08-27T04:54:08.506Z,7.70
2022-08-27T04:56:36.488Z,7.40
2022-08-27T04:59:05.975Z,7.55
2022-08-27T05:01:32.984Z,8.40
2022-08-27T05:04:00.245Z,8.63
2022-08-27T05:06:27.855Z,8.18
2022-08-27T05:08:55.572Z,8.38
2022-08-27T05:11:26.401Z,9.05
2022-08-27T05:13:53.103Z,8.63
2022-08-27T05:16:22.356Z,9.25
2022-08-27T05:18:51.769Z,8.88
2022-08-27T05:21:28.569Z,10.20
2022-08-27T05:23:58.101Z,10.98
2022-08-27T05:26:26.317Z,10.10
2022-08-27T05:28:53.156Z,10.18
2022-08-27T05:31:21.802Z,7.75
2022-08-27T05:33:48.821Z,6.43
2022-08-27T05:36:22.843Z,7.72
2022-08-27T05:38:49.729Z,8.30
2022-08-27T05:41:21.428Z,8.60
2022-08-27T05:43:50.400Z,7.68
2022-08-27T05:46:21.571Z,8.30
2022-08-27T05:48:49.884Z,7.75
2022-08-27T05:51:25.743Z,8.63
2022-08-27T05:54:06.778Z,8.52
2022-08-27T05:56:37.462Z,8.55
2022-08-27T05:59:23.952Z,9.55
2022-08-27T06:01:54.137Z,8.73
2022-08-27T06:04:24.611Z,9.40
2022-08-27T06:06:52.615Z,8.77
2022-08-27T06:09:24.183Z,8.32
2022-08-27T06:11:53.705Z,8.82
2022-08-27T06:14:20.316Z,8.00
2022-08-27T06:16:47.827Z,8.90
2022-08-27T06:19:15.185Z,8.68
2022-08-27T06:21:42.473Z,8.60
2022-08-27T06:24:12.018Z,9.60
2022-08-27T06:26:43.598Z,8.00
2022-08-27T06:29:12.152Z,7.97
2022-08-27T06:31:40.465Z,8.13
2022-08-27T06:34:09.622Z,8.50
2022-08-27T06:36:40.497Z,8.27
2022-08-27T06:39:12.470Z,7.72
2022-08-27T06:41:41.336Z,8.30
2022-08-27T06:44:08.491Z,8.15
2022-08-27T06:46:38.059Z,8.57
2022-08-27T06:49:05.661Z,8.13
2022-08-27T06:51:37.359Z,8.82
2022-08-27T06:54:09.771Z,8.20
2022-08-27T06:56:36.303Z,8.60
2022-08-27T06:59:11.727Z,7.80
2022-08-27T07:01:42.431Z,7.62
2022-08-27T07:04:15.930Z,7.65
2022-08-27T07:06:42.494Z,7.82
2022-08-27T07:09:10.063Z,8.02
2022-08-27T07:11:37.829Z,8.35
2022-08-27T07:14:05.795Z,8.80
2022-08-27T07:16:32.505Z,8.45
2022-08-27T07:19:03.972Z,8.60
2022-08-27T07:21:33.245Z,8.18
2022-08-27T07:24:03.889Z,8.43
2022-08-27T07:26:34.001Z,7.40
2022-08-27T07:29:00.882Z,7.90
2022-08-27T07:31:27.571Z,8.00
2022-08-27T07:33:54.093Z,7.10
2022-08-27T07:36:22.207Z,7.72
2022-08-27T07:38:59.322Z,7.32
2022-08-27T07:43:36.970Z,8.07
2022-08-27T07:46:04.312Z,8.48
2022-08-27T07:48:33.775Z,7.87
2022-08-27T07:51:04.621Z,8.18
2022-08-27T07:53:32.480Z,8.50
2022-08-27T07:56:07.245Z,7.87
2022-08-27T07:58:34.851Z,7.45
2022-08-27T08:01:01.920Z,8.70
2022-08-27T08:03:28.609Z,8.13
2022-08-27T08:05:56.549Z,7.12
2022-08-27T08:08:24.346Z,7.70
2022-08-27T08:10:50.906Z,7.85
2022-08-27T08:13:18.930Z,8.45
2022-08-27T08:15:46.831Z,8.02
2022-08-27T08:18:14.153Z,8.48
2022-08-27T08:20:57.697Z,7.82
2022-08-27T08:23:25.247Z,8.05
2022-08-27T08:25:51.911Z,7.95
2022-08-27T08:28:18.584Z,8.15
2022-08-27T08:30:46.954Z,8.55
2022-08-27T08:33:13.539Z,8.68
2022-08-27T08:35:41.343Z,9.27
2022-08-27T08:38:08.676Z,9.00
2022-08-27T08:40:41.330Z,9.27
2022-08-27T08:43:35.988Z,9.57
2022-08-27T08:47:53.133Z,10.43
2022-08-27T08:50:34.657Z,9.55
2022-08-27T08:53:31.491Z,10.02
2022-08-27T08:56:02.533Z,10.40
2022-08-27T08:59:30.920Z,10.45
2022-08-27T09:01:58.081Z,10.05
2022-08-27T09:04:27.543Z,9.90
2022-08-27T09:08:47.099Z,11.60
2022-08-27T09:12:35.625Z,9.52
2022-08-27T09:15:28.250Z,9.75
2022-08-27T09:18:14.271Z,10.45
2022-08-27T09:20:48.381Z,9.43
2022-08-27T09:23:46.583Z,9.45
2022-08-27T09:26:26.201Z,9.70
2022-08-27T09:29:15.334Z,9.80
2022-08-27T09:31:46.099Z,9.85
2022-08-27T09:34:14.530Z,10.02
2022-08-27T09:37:09.630Z,9.60
2022-08-27T09:40:23.576Z,9.52
2022-08-27T09:42:55.306Z,9.23
2022-08-27T09:45:26.520Z,8.85
2022-08-27T09:48:14.263Z,9.52
2022-08-27T09:51:08.044Z,9.48
2022-08-27T09:54:03.466Z,10.07
2022-08-27T09:56:50.111Z,9.75
2022-08-27T09:59:26.537Z,9.63
2022-08-27T10:02:02.001Z,10.70
2022-08-27T10:04:55.067Z,9.10
2022-08-27T10:07:46.605Z,9.48
2022-08-27T10:12:33.206Z,9.80
2022-08-27T10:15:03.243Z,10.00
2022-08-27T10:18:11.449Z,10.63
2022-08-27T10:21:11.691Z,9.93
2022-08-27T10:24:10.576Z,9.15
2022-08-27T10:29:07.423Z,9.80
2022-08-27T10:34:38.076Z,9.73
2022-08-27T10:37:40.369Z,9.95
2022-08-27T10:40:32.762Z,10.10
2022-08-27T10:45:51.051Z,10.65
2022-08-27T10:50:02.053Z,9.63
2022-08-27T10:52:51.523Z,9.80
2022-08-27T10:55:34.192Z,9.88
2022-08-27T11:01:26.057Z,9.90
2022-08-27T11:04:12.611Z,9.50
2022-08-27T11:06:57.883Z,11.18
2022-08-27T11:09:56.209Z,9.65
2022-08-27T11:12:33.636Z,9.98
2022-08-27T11:18:13.760Z,8.75
2022-08-27T11:23:58.749Z,8.93
2022-08-27T11:26:25.389Z,8.10
2022-08-27T11:29:06.806Z,8.20
2022-08-27T11:32:26.616Z,7.80
2022-08-27T11:35:16.486Z,7.53
2022-08-27T11:38:58.264Z,7.12
2022-08-27T11:42:26.895Z,7.35
2022-08-27T11:45:23.818Z,7.70
2022-08-27T11:47:57.672Z,6.65
2022-08-27T11:50:27.425Z,6.72
2022-08-27T11:53:28.589Z,6.93
2022-08-27T11:55:56.537Z,6.87
2022-08-27T11:58:30.634Z,6.20
2022-08-27T12:01:04.301Z,7.35
2022-08-27T12:03:35.534Z,8.18
2022-08-27T12:06:26.544Z,7.15
2022-08-27T12:09:04.961Z,7.75
2022-08-27T12:13:20.516Z,7.43
2022-08-27T12:18:04.452Z,7.70
2022-08-27T12:21:34.101Z,7.18
2022-08-27T12:25:31.752Z,7.10
2022-08-27T12:28:04.066Z,7.35
2022-08-27T12:30:48.414Z,7.62
2022-08-27T12:33:34.572Z,7.28
2022-08-27T12:36:14.978Z,7.60
2022-08-27T12:38:57.592Z,7.78
2022-08-27T12:41:43.778Z,7.62
2022-08-27T12:44:22.336Z,7.60
2022-08-27T12:47:01.204Z,7.90
2022-08-27T12:49:40.187Z,8.13
2022-08-27T12:52:43.205Z,7.65
2022-08-27T12:59:27.043Z,7.57
2022-08-27T13:03:49.672Z,6.60
2022-08-27T13:06:32.934Z,7.00
2022-08-27T13:09:05.848Z,7.72
2022-08-27T13:11:44.204Z,7.87
2022-08-27T13:14:16.001Z,7.78
2022-08-27T13:16:50.899Z,7.35
2022-08-27T13:20:03.479Z,7.43
2022-08-27T13:22:39.810Z,8.02
2022-08-27T13:25:21.931Z,6.72
2022-08-27T13:28:02.384Z,7.45
2022-08-27T13:30:35.658Z,7.00
2022-08-27T13:33:05.812Z,6.60
2022-08-27T13:35:33.470Z,6.85
2022-08-27T13:38:02.769Z,5.90
2022-08-27T13:40:37.136Z,6.32
2022-08-27T13:43:11.750Z,6.70
2022-08-27T13:45:40.896Z,6.15
2022-08-27T13:48:10.819Z,6.30
2022-08-27T13:50:37.569Z,6.15
2022-08-27T13:53:36.142Z,6.47
2022-08-27T13:56:02.980Z,5.87
2022-08-27T13:58:32.884Z,5.85
2022-08-27T14:01:26.317Z,5.60
2022-08-27T14:04:07.564Z,5.40
2022-08-27T14:06:47.017Z,5.50
2022-08-27T14:09:25.728Z,5.93
2022-08-27T14:12:09.838Z,5.90
2022-08-27T14:14:41.292Z,5.93
2022-08-27T14:17:37.479Z,6.15
2022-08-27T14:20:06.117Z,6.62
2022-08-27T14:22:33.675Z,6.78
2022-08-27T14:25:01.445Z,7.75
2022-08-27T14:27:28.964Z,9.18
2022-08-27T14:29:55.487Z,8.40
2022-08-27T14:32:22.016Z,8.23
2022-08-27T14:34:49.010Z,4.82
2022-08-27T14:37:15.980Z,3.75
2022-08-27T14:39:43.770Z,4.35
2022-08-27T14:42:11.781Z,4.20
2022-08-27T14:44:38.346Z,4.35
2022-08-27T14:47:09.689Z,4.25
2022-08-27T14:49:43.162Z,4.55
2022-08-27T14:52:11.582Z,4.57
2022-08-27T14:54:38.680Z,4.00
2022-08-27T14:57:07.191Z,4.45
2022-08-27T14:59:34.898Z,4.32
2022-08-27T15:02:07.829Z,4.28
2022-08-27T15:04:34.437Z,4.65
2022-08-27T15:07:00.981Z,4.10
2022-08-27T15:09:28.558Z,5.10
2022-08-27T15:11:56.586Z,4.78
2022-08-27T15:14:28.480Z,5.65
2022-08-27T15:16:55.409Z,5.22
2022-08-27T15:19:24.386Z,5.45
2022-08-27T15:21:53.966Z,4.93
2022-08-27T15:24:27.890Z,5.00
2022-08-27T15:26:58.980Z,5.03
2022-08-27T15:29:26.744Z,4.72
2022-08-27T15:31:53.588Z,5.60
2022-08-27T15:34:20.246Z,5.50
2022-08-27T15:36:46.779Z,5.25
2022-08-27T15:39:13.289Z,5.40
2022-08-27T15:42:06.310Z,5.82
2022-08-27T15:44:34.567Z,5.15
2022-08-27T15:47:01.142Z,5.62
2022-08-27T15:49:27.682Z,5.93
2022-08-27T15:51:54.691Z,5.57
2022-08-27T15:54:23.889Z,5.00
2022-08-27T15:56:50.435Z,5.65
2022-08-27T15:59:17.701Z,5.00
2022-08-27T16:01:44.487Z,5.30
2022-08-27T16:04:11.113Z,5.57
2022-08-27T16:06:37.898Z,5.45
2022-08-27T16:09:05.350Z,4.53
2022-08-27T16:11:31.919Z,5.12
2022-08-27T16:13:58.479Z,5.30
2022-08-27T16:16:31.648Z,5.37
2022-08-27T16:19:01.415Z,5.00
2022-08-27T16:21:29.149Z,4.82
2022-08-27T16:23:55.759Z,5.35
2022-08-27T16:26:22.659Z,5.07
2022-08-27T16:28:49.195Z,4.93
2022-08-27T16:31:15.855Z,5.50
2022-08-27T16:33:43.067Z,5.10
2022-08-27T16:36:10.789Z,4.95
2022-08-27T16:38:37.471Z,5.37
2022-08-27T16:41:05.215Z,5.57
2022-08-27T16:43:32.207Z,6.20
2022-08-27T16:46:01.154Z,5.32
2022-08-27T16:48:46.686Z,5.35
2022-08-27T16:51:34.884Z,5.90
2022-08-27T16:54:06.301Z,5.28
2022-08-27T16:56:37.098Z,5.78
2022-08-27T16:59:05.515Z,5.60
2022-08-27T17:01:33.034Z,5.78
2022-08-27T17:04:13.831Z,5.70
2022-08-27T17:06:46.182Z,5.95
2022-08-27T17:09:13.200Z,6.18
2022-08-27T17:11:44.698Z,6.32
2022-08-27T17:14:11.523Z,6.25
2022-08-27T17:16:40.863Z,5.87
2022-08-27T17:19:08.881Z,6.20
2022-08-27T17:21:36.584Z,6.37
2022-08-27T17:24:04.398Z,6.03
2022-08-27T17:26:37.394Z,6.30
2022-08-27T17:29:04.033Z,5.70
2022-08-27T17:31:36.148Z,6.22
2022-08-27T17:34:05.134Z,6.00
2022-08-27T17:36:33.161Z,6.15
2022-08-27T17:39:01.906Z,6.40
2022-08-27T17:41:38.662Z,6.10
2022-08-27T17:45:16.813Z,6.25
2022-08-27T17:47:43.709Z,6.70
2022-08-27T17:50:10.416Z,6.53
2022-08-27T17:52:40.012Z,6.40
2022-08-27T17:55:07.700Z,6.60
2022-08-27T17:57:40.406Z,7.12
2022-08-27T18:00:11.275Z,6.35
2022-08-27T18:02:44.942Z,5.90
2022-08-27T18:05:14.014Z,6.78
2022-08-27T18:07:42.564Z,6.35
2022-08-27T18:10:13.614Z,6.72
2022-08-27T18:12:41.995Z,6.12
2022-08-27T18:15:17.908Z,6.30
2022-08-27T18:17:44.775Z,7.18
2022-08-27T18:20:14.185Z,6.40
2022-08-27T18:22:48.421Z,6.62
2022-08-27T18:25:17.246Z,6.60
2022-08-27T18:27:46.496Z,6.40
2022-08-27T18:30:13.966Z,6.40
2022-08-27T18:32:40.688Z,6.25
2022-08-27T18:35:17.209Z,6.25
2022-08-27T18:37:44.440Z,6.53
2022-08-27T18:40:13.181Z,6.03
2022-08-27T18:42:40.394Z,6.37
2022-08-27T18:45:15.182Z,7.05
2022-08-27T18:47:42.497Z,6.75
2022-08-27T18:50:17.841Z,7.20
2022-08-27T18:52:47.488Z,7.57
2022-08-27T18:55:19.460Z,7.20
2022-08-27T18:57:46.096Z,7.43
2022-08-27T19:00:15.449Z,7.62
2022-08-27T19:02:52.099Z,7.80
2022-08-27T19:05:25.286Z,8.23
2022-08-27T19:07:54.260Z,7.87
2022-08-27T19:10:21.123Z,8.40
2022-08-27T19:12:47.775Z,7.85
2022-08-27T19:15:14.558Z,7.80
2022-08-27T19:17:44.866Z,8.02
2022-08-27T19:20:12.032Z,8.18
2022-08-27T19:22:38.608Z,8.10
2022-08-27T19:25:06.817Z,7.70
2022-08-27T19:27:35.450Z,7.80
2022-08-27T19:30:03.200Z,7.55
2022-08-27T19:32:30.256Z,7.85
2022-08-27T19:34:56.808Z,7.55
2022-08-27T19:37:29.189Z,7.80
2022-08-27T19:39:57.180Z,7.35
2022-08-27T19:42:23.918Z,8.00
2022-08-27T19:44:50.446Z,7.05
2022-08-27T19:47:21.424Z,7.30
2022-08-27T19:49:49.020Z,6.85
2022-08-27T19:52:15.614Z,8.00
2022-08-27T19:54:56.971Z,7.05
2022-08-27T19:57:36.600Z,6.87
2022-08-27T20:00:07.141Z,6.95
2022-08-27T20:02:33.661Z,7.22
2022-08-27T20:05:17.421Z,6.82
2022-08-27T20:07:45.675Z,7.35
2022-08-27T20:10:12.572Z,7.85
2022-08-27T20:12:39.105Z,7.53
2022-08-27T20:15:06.770Z,7.43
2022-08-27T20:17:34.720Z,7.72
2022-08-27T20:20:01.221Z,7.72
2022-08-27T20:22:27.819Z,7.72
2022-08-27T20:24:54.408Z,8.05
2022-08-27T20:27:20.938Z,8.13
2022-08-27T20:29:47.773Z,7.95
2022-08-27T20:32:14.567Z,8.32
2022-08-27T20:34:41.121Z,7.80
2022-08-27T20:37:08.033Z,8.25
2022-08-27T20:39:34.547Z,7.80
2022-08-27T20:42:01.106Z,7.25
2022-08-27T20:44:27.659Z,7.53
2022-08-27T20:46:58.533Z,8.35
2022-08-27T20:49:27.184Z,8.27
2022-08-27T20:52:02.835Z,8.40
2022-08-27T20:54:32.977Z,8.23
2022-08-27T20:56:59.562Z,8.40
2022-08-27T20:59:44.536Z,8.43
2022-08-27T21:02:14.140Z,7.68
2022-08-27T21:04:45.748Z,8.63
2022-08-27T21:07:17.672Z,8.60
2022-08-27T21:09:56.831Z,10.00
2022-08-27T21:12:29.309Z,8.38
2022-08-27T21:14:56.773Z,8.32
2022-08-27T21:17:27.989Z,7.85
2022-08-27T21:19:55.255Z,7.97
2022-08-27T21:22:23.820Z,8.85
2022-08-27T21:24:51.068Z,8.65
2022-08-27T21:27:21.005Z,8.68
2022-08-27T21:29:48.337Z,7.80
2022-08-27T21:32:15.553Z,8.10
2022-08-27T21:34:42.644Z,8.02
2022-08-27T21:37:11.352Z,9.20
2022-08-27T21:39:39.322Z,7.80
2022-08-27T21:42:06.752Z,8.18
2022-08-27T21:44:34.395Z,7.35
2022-08-27T21:47:02.815Z,7.62
2022-08-27T21:49:31.737Z,8.57
2022-08-27T21:52:05.345Z,7.70
2022-08-27T21:54:36.067Z,7.72
2022-08-27T21:57:04.521Z,7.50
2022-08-27T21:59:33.286Z,7.68
2022-08-27T22:02:00.803Z,6.87
2022-08-27T22:04:30.649Z,7.78
2022-08-27T22:06:58.900Z,7.97
2022-08-27T22:09:27.053Z,7.62
2022-08-27T22:11:53.784Z,7.05
2022-08-27T22:14:20.441Z,8.18
2022-08-27T22:16:47.428Z,7.68
2022-08-27T22:19:13.961Z,7.20
2022-08-27T22:21:40.505Z,8.23
2022-08-27T22:24:07.641Z,7.47
2022-08-27T22:26:34.518Z,7.87
2022-08-27T22:29:03.303Z,7.87
2022-08-27T22:31:31.906Z,7.40
2022-08-27T22:34:00.734Z,7.68
2022-08-27T22:36:27.879Z,7.62
2022-08-27T22:38:54.632Z,8.20
2022-08-27T22:41:30.428Z,7.37
2022-08-27T22:43:59.495Z,7.12
2022-08-27T22:46:26.251Z,7.35
2022-08-27T22:48:52.813Z,7.85
2022-08-27T22:51:19.412Z,7.25
2022-08-27T22:53:45.935Z,7.78
2022-08-27T22:56:12.806Z,7.07
2022-08-27T22:58:39.934Z,7.37
2022-08-27T23:01:12.753Z,6.85
2022-08-27T23:03:39.303Z,7.80
2022-08-27T23:06:05.976Z,7.32
2022-08-27T23:08:32.597Z,8.32
2022-08-27T23:10:59.113Z,7.78
2022-08-27T23:13:25.639Z,7.65
2022-08-27T23:15:52.279Z,7.25
2022-08-27T23:18:18.914Z,7.40
2022-08-27T23:20:45.451Z,7.57
2022-08-27T23:23:11.987Z,7.72
2022-08-27T23:25:56.760Z,6.82
2022-08-27T23:28:23.527Z,8.18
2022-08-27T23:30:50.263Z,7.35
2022-08-27T23:33:16.905Z,7.07
2022-08-27T23:35:47.323Z,7.80
2022-08-27T23:38:16.463Z,7.40
2022-08-27T23:40:44.671Z,8.00
2022-08-27T23:43:13.282Z,6.95
2022-08-27T23:45:40.362Z,7.35
2022-08-27T23:48:07.851Z,6.57
2022-08-27T23:50:34.629Z,7.15
2022-08-27T23:53:04.300Z,7.30
2022-08-27T23:55:31.649Z,7.55
2022-08-27T23:57:59.184Z,7.53
